Time;durP1;ratioP1;P1;durP2;ratioP2;P2;SDS_P1;SDS_P2;PMS_P1;PMS_P2;Temp;Humidity;BMP_temperature;BMP_pressure;BME280_temperature;BME280_humidity;BME280_pressure;Samples;Min_cycle;Max_cycle;Signal;HPM_P1;HPM_P2
2024/02/22 00:02:02;;;;;;;9.30;6.30;;;9.00;99.90;;;;;;5050185;28;20040;-66
2024/02/22 00:04:27;;;;;;;9.35;6.57;;;9.00;99.90;;;;;;5052693;28;20370;-66
2024/02/22 00:06:53;;;;;;;9.57;6.60;;;9.10;99.90;;;;;;5035312;28;20036;-66
2024/02/22 00:09:19;;;;;;;9.02;6.65;;;9.10;99.90;;;;;;5044284;28;20040;-66
2024/02/22 00:11:45;;;;;;;9.27;6.80;;;9.10;99.90;;;;;;5059309;28;20077;-66
2024/02/22 00:14:10;;;;;;;9.38;6.40;;;9.10;99.90;;;;;;5045261;28;20071;-66
2024/02/22 00:16:36;;;;;;;12.35;7.15;;;9.10;99.90;;;;;;5059813;28;20076;-66
2024/02/22 00:19:02;;;;;;;9.65;6.80;;;9.10;99.90;;;;;;5044656;28;20060;-66
2024/02/22 00:21:27;;;;;;;11.25;6.93;;;9.10;99.90;;;;;;5043915;28;20036;-66
2024/02/22 00:23:53;;;;;;;9.93;6.90;;;9.10;99.90;;;;;;5045134;28;20069;-66
2024/02/22 00:26:21;;;;;;;12.25;7.32;;;9.10;99.90;;;;;;5048836;28;20041;-66
2024/02/22 00:28:46;;;;;;;9.40;6.88;;;9.10;99.90;;;;;;5053353;28;20056;-66
2024/02/22 00:31:12;;;;;;;10.82;6.95;;;9.10;99.90;;;;;;5051169;28;20090;-66
2024/02/22 00:33:38;;;;;;;10.55;7.07;;;9.10;99.90;;;;;;5052316;28;20502;-66
2024/02/22 00:36:04;;;;;;;11.93;6.80;;;9.10;99.90;;;;;;5064118;28;20048;-66
2024/02/22 00:38:29;;;;;;;10.32;7.00;;;9.20;99.90;;;;;;5051964;28;20055;-66
2024/02/22 00:40:55;;;;;;;12.30;6.93;;;9.20;99.90;;;;;;5063362;28;20040;-66
2024/02/22 00:43:21;;;;;;;9.75;7.22;;;9.20;99.90;;;;;;5053705;28;20095;-66
2024/02/22 00:45:46;;;;;;;10.32;7.13;;;9.20;99.90;;;;;;5051157;28;20045;-66
2024/02/22 00:48:12;;;;;;;12.23;7.13;;;9.20;99.90;;;;;;5052214;28;20118;-66
2024/02/22 00:50:38;;;;;;;10.55;6.95;;;9.20;99.90;;;;;;5034705;28;20045;-66
2024/02/22 00:53:03;;;;;;;10.73;6.72;;;9.20;99.90;;;;;;5050269;28;20156;-66
2024/02/22 00:55:29;;;;;;;10.93;6.78;;;9.20;99.90;;;;;;5044354;28;20080;-66
2024/02/22 00:57:55;;;;;;;13.65;7.40;;;9.20;99.90;;;;;;5051617;28;20045;-66
2024/02/22 01:00:20;;;;;;;10.80;7.03;;;9.30;99.90;;;;;;5049929;28;20029;-66
2024/02/22 01:02:46;;;;;;;10.85;7.15;;;9.30;99.90;;;;;;5052164;28;20403;-66
2024/02/22 01:05:12;;;;;;;9.10;6.55;;;9.20;99.90;;;;;;5047933;28;20052;-66
2024/02/22 01:07:38;;;;;;;10.13;7.22;;;9.30;99.90;;;;;;5044476;28;20124;-66
2024/02/22 01:10:05;;;;;;;11.15;7.32;;;9.30;99.90;;;;;;5033670;28;20079;-66
2024/02/22 01:12:31;;;;;;;11.75;7.63;;;9.30;99.90;;;;;;5052671;28;20040;-67
2024/02/22 01:14:56;;;;;;;11.52;7.05;;;9.30;99.90;;;;;;5049951;28;20412;-66
2024/02/22 01:17:22;;;;;;;10.80;7.03;;;9.30;99.90;;;;;;5047428;28;20045;-66
2024/02/22 01:19:48;;;;;;;11.25;7.32;;;9.30;99.90;;;;;;5051647;28;20543;-67
2024/02/22 01:22:14;;;;;;;11.65;7.63;;;9.30;99.90;;;;;;5050964;28;20098;-66
2024/02/22 01:24:40;;;;;;;10.43;7.10;;;9.30;99.90;;;;;;5051085;28;20063;-66
2024/02/22 01:27:07;;;;;;;12.48;7.47;;;9.30;99.90;;;;;;5049310;28;20076;-66
2024/02/22 01:29:34;;;;;;;11.70;7.63;;;9.40;99.90;;;;;;5038483;28;20037;-66
2024/02/22 01:32:00;;;;;;;11.13;7.40;;;9.40;99.90;;;;;;5048927;28;20412;-66
2024/02/22 01:34:25;;;;;;;11.57;7.40;;;9.40;99.90;;;;;;5033602;28;20041;-66
2024/02/22 01:36:51;;;;;;;10.20;7.03;;;9.40;99.90;;;;;;5061303;28;20585;-67
2024/02/22 01:39:17;;;;;;;14.65;7.70;;;9.40;99.90;;;;;;5054916;28;20052;-67
2024/02/22 01:41:43;;;;;;;10.98;7.05;;;9.40;99.90;;;;;;5031318;28;20041;-66
2024/02/22 01:44:09;;;;;;;10.93;7.05;;;9.40;99.90;;;;;;5047881;28;20116;-66
2024/02/22 01:46:35;;;;;;;11.63;7.20;;;9.40;99.90;;;;;;5051141;28;20500;-66
2024/02/22 01:49:01;;;;;;;11.90;7.38;;;9.40;99.90;;;;;;5049272;28;20045;-66
2024/02/22 01:51:28;;;;;;;12.45;6.78;;;9.40;99.90;;;;;;5051910;28;20065;-66
2024/02/22 01:53:55;;;;;;;13.13;6.80;;;9.40;99.90;;;;;;5050743;28;20041;-66
2024/02/22 01:56:22;;;;;;;12.02;7.03;;;9.40;99.90;;;;;;5052022;28;20400;-66
2024/02/22 01:58:49;;;;;;;10.70;6.72;;;9.50;99.90;;;;;;5051240;28;20497;-66
2024/02/22 02:01:16;;;;;;;11.35;6.55;;;9.40;99.90;;;;;;5051607;28;20040;-66
2024/02/22 02:03:43;;;;;;;10.73;5.93;;;9.40;99.90;;;;;;5047433;28;20037;-66
2024/02/22 02:06:09;;;;;;;12.15;6.68;;;9.40;99.90;;;;;;5051249;28;20112;-66
2024/02/22 02:08:36;;;;;;;11.50;6.13;;;9.50;99.90;;;;;;5050362;28;20467;-66
2024/02/22 02:11:02;;;;;;;11.30;6.35;;;9.50;99.90;;;;;;5051812;28;20037;-66
2024/02/22 02:13:28;;;;;;;11.43;6.18;;;9.50;99.90;;;;;;5051732;28;20115;-66
2024/02/22 02:15:54;;;;;;;11.07;6.07;;;9.50;99.90;;;;;;5047701;28;20041;-66
2024/02/22 02:18:20;;;;;;;9.80;5.65;;;9.60;99.90;;;;;;5042907;28;20036;-66
2024/02/22 02:20:58;;;;;;;10.85;6.40;;;9.50;99.90;;;;;;5048614;28;20059;-66
2024/02/22 02:23:58;;;;;;;13.73;6.47;;;9.50;99.90;;;;;;5048317;28;20044;-66
2024/02/22 02:26:24;;;;;;;11.05;6.28;;;9.50;99.90;;;;;;5048327;28;20496;-66
2024/02/22 02:28:50;;;;;;;13.55;6.20;;;9.60;99.90;;;;;;5045247;28;20041;-66
2024/02/22 02:31:16;;;;;;;10.57;6.13;;;9.50;99.90;;;;;;5051219;28;20052;-66
2024/02/22 02:33:41;;;;;;;9.25;5.45;;;9.50;99.90;;;;;;5050338;28;20138;-66
2024/02/22 02:36:07;;;;;;;12.60;5.95;;;9.60;99.90;;;;;;5045240;28;20033;-66
2024/02/22 02:38:33;;;;;;;12.48;5.63;;;9.60;99.90;;;;;;5050539;28;20124;-66
2024/02/22 02:40:59;;;;;;;11.30;6.03;;;9.60;99.90;;;;;;5051261;28;20115;-66
2024/02/22 02:43:24;;;;;;;12.38;6.10;;;9.60;99.90;;;;;;5050353;28;20108;-66
2024/02/22 02:45:50;;;;;;;13.32;6.00;;;9.60;99.90;;;;;;5044799;28;20128;-66
2024/02/22 02:48:19;;;;;;;10.02;5.80;;;9.60;99.90;;;;;;5050372;28;20544;-66
2024/02/22 02:50:46;;;;;;;11.05;5.82;;;9.60;99.90;;;;;;5048303;28;20048;-66
2024/02/22 02:53:12;;;;;;;15.35;6.82;;;9.60;99.90;;;;;;5039645;28;20513;-66
2024/02/22 02:55:37;;;;;;;11.73;6.07;;;9.60;99.90;;;;;;5041201;28;20041;-66
2024/02/22 02:58:05;;;;;;;11.38;5.68;;;9.70;99.90;;;;;;5050435;28;20064;-66
2024/02/22 03:00:31;;;;;;;13.35;6.43;;;9.70;99.90;;;;;;5050656;28;20048;-66
2024/02/22 03:02:59;;;;;;;11.80;5.60;;;9.60;99.90;;;;;;5051067;28;20041;-66
2024/02/22 03:05:28;;;;;;;9.88;5.13;;;9.70;99.90;;;;;;5049922;28;20444;-66
2024/02/22 03:07:54;;;;;;;10.55;5.60;;;9.70;99.90;;;;;;5048690;28;20084;-66
2024/02/22 03:10:20;;;;;;;13.82;5.85;;;9.70;99.90;;;;;;5050528;28;20044;-66
2024/02/22 03:12:46;;;;;;;10.48;4.85;;;9.80;99.90;;;;;;5048546;28;20120;-66
2024/02/22 03:15:13;;;;;;;9.55;5.38;;;9.70;99.90;;;;;;5047748;28;20120;-66
2024/02/22 03:17:39;;;;;;;10.10;5.22;;;9.70;99.90;;;;;;5050003;28;20511;-66
2024/02/22 03:20:09;;;;;;;10.30;5.15;;;9.70;99.90;;;;;;5050489;28;20032;-66
2024/02/22 03:22:39;;;;;;;8.95;4.75;;;9.70;99.90;;;;;;5050330;28;20176;-66
2024/02/22 03:25:07;;;;;;;11.70;5.13;;;9.70;99.90;;;;;;5047246;28;20174;-66
2024/02/22 03:27:32;;;;;;;9.93;4.22;;;9.70;99.90;;;;;;5049738;28;20120;-66
2024/02/22 03:29:59;;;;;;;11.23;4.93;;;9.70;99.90;;;;;;5049345;28;20171;-66
2024/02/22 03:32:25;;;;;;;11.25;4.70;;;9.70;99.90;;;;;;5045487;28;20029;-66
2024/02/22 03:34:51;;;;;;;11.25;5.20;;;9.80;99.90;;;;;;5049285;28;20044;-66
2024/02/22 03:37:17;;;;;;;10.60;5.45;;;9.80;99.90;;;;;;5049794;28;20079;-66
2024/02/22 03:39:49;;;;;;;12.27;5.43;;;9.80;99.90;;;;;;5050133;28;20041;-66
2024/02/22 03:42:18;;;;;;;15.52;6.65;;;9.80;99.90;;;;;;5048020;28;20047;-66
2024/02/22 03:44:44;;;;;;;14.23;5.88;;;9.80;99.90;;;;;;5043656;28;20037;-66
2024/02/22 03:47:11;;;;;;;12.20;6.05;;;9.80;99.90;;;;;;5041493;28;20102;-66
2024/02/22 03:49:37;;;;;;;16.00;6.55;;;9.80;99.90;;;;;;5049912;28;20562;-66
2024/02/22 03:52:02;;;;;;;14.40;6.60;;;9.80;99.90;;;;;;5048804;28;20041;-66
2024/02/22 03:54:28;;;;;;;13.32;5.60;;;9.80;99.90;;;;;;5047609;28;20064;-66
2024/02/22 03:56:54;;;;;;;14.15;6.55;;;9.80;99.90;;;;;;5042255;28;20111;-66
2024/02/22 03:59:19;;;;;;;15.20;6.60;;;9.90;99.90;;;;;;5049054;28;20044;-66
2024/02/22 04:01:45;;;;;;;13.98;5.82;;;9.80;99.90;;;;;;5048996;28;20069;-66
2024/02/22 04:04:11;;;;;;;14.20;6.18;;;9.90;99.90;;;;;;5049688;28;20036;-66
2024/02/22 04:06:37;;;;;;;14.02;6.45;;;9.90;99.90;;;;;;5049617;28;20536;-66
2024/02/22 04:09:03;;;;;;;15.20;6.50;;;9.90;99.90;;;;;;5049742;28;20044;-66
2024/02/22 04:11:29;;;;;;;15.10;6.32;;;9.90;99.90;;;;;;5046466;28;20045;-66
2024/02/22 04:13:54;;;;;;;16.30;6.35;;;9.90;99.90;;;;;;5044604;28;20048;-66
2024/02/22 04:16:20;;;;;;;14.65;6.22;;;9.90;99.90;;;;;;5048580;28;20037;-66
2024/02/22 04:18:46;;;;;;;16.50;7.07;;;9.90;99.90;;;;;;5049232;28;20060;-66
2024/02/22 04:21:11;;;;;;;15.07;6.63;;;9.90;99.90;;;;;;5049834;28;20401;-66
2024/02/22 04:23:37;;;;;;;15.27;6.70;;;9.70;99.90;;;;;;5048982;28;20493;-66
2024/02/22 04:26:03;;;;;;;13.73;6.63;;;10.00;99.90;;;;;;5045908;28;20042;-66
2024/02/22 04:28:28;;;;;;;15.80;7.47;;;10.00;99.90;;;;;;5046424;28;20094;-66
2024/02/22 04:30:54;;;;;;;13.23;6.90;;;10.00;99.90;;;;;;5049616;28;20089;-66
2024/02/22 04:33:20;;;;;;;17.75;6.63;;;10.00;99.90;;;;;;5051909;28;20059;-66
2024/02/22 04:35:46;;;;;;;13.43;6.47;;;10.00;99.90;;;;;;5053101;28;20055;-66
2024/02/22 04:38:12;;;;;;;13.57;6.93;;;9.90;99.90;;;;;;5052556;28;20033;-66
2024/02/22 04:40:38;;;;;;;13.93;6.53;;;10.00;99.90;;;;;;5052788;28;20167;-66
2024/02/22 04:43:04;;;;;;;15.30;7.28;;;10.00;99.90;;;;;;5053968;28;20088;-66
2024/02/22 04:45:31;;;;;;;12.73;6.70;;;10.00;99.90;;;;;;5056049;28;20080;-66
2024/02/22 04:47:59;;;;;;;15.77;6.93;;;10.00;99.90;;;;;;5052913;28;20029;-66
2024/02/22 04:50:26;;;;;;;15.75;7.60;;;10.00;99.90;;;;;;5052902;28;20110;-66
2024/02/22 04:52:53;;;;;;;15.65;7.10;;;10.00;99.90;;;;;;5050028;28;20049;-66
2024/02/22 04:55:19;;;;;;;17.35;7.57;;;10.00;99.90;;;;;;5048780;28;20057;-66
2024/02/22 04:57:47;;;;;;;18.70;7.53;;;10.00;99.90;;;;;;5052375;28;20128;-66
2024/02/22 05:00:13;;;;;;;15.80;7.53;;;10.00;99.90;;;;;;5048574;28;20071;-66
2024/02/22 05:02:38;;;;;;;16.85;7.95;;;10.00;99.90;;;;;;5052010;28;20417;-66
2024/02/22 05:05:06;;;;;;;16.25;7.80;;;10.00;99.90;;;;;;5052923;28;20037;-66
2024/02/22 05:07:32;;;;;;;17.27;7.82;;;10.10;99.90;;;;;;5052213;28;20033;-66
2024/02/22 05:09:58;;;;;;;15.52;7.32;;;10.00;99.90;;;;;;5048550;28;20132;-66
2024/02/22 05:12:24;;;;;;;15.07;7.13;;;10.00;99.90;;;;;;5052121;28;20104;-66
2024/02/22 05:14:49;;;;;;;15.73;7.53;;;10.00;99.90;;;;;;5052683;28;20403;-66
2024/02/22 05:17:16;;;;;;;14.63;7.05;;;10.00;99.90;;;;;;5048830;28;20033;-66
2024/02/22 05:19:42;;;;;;;12.95;7.00;;;10.00;99.90;;;;;;5052304;28;20041;-66
2024/02/22 05:22:08;;;;;;;14.23;7.30;;;10.10;99.90;;;;;;5050317;28;20049;-66
2024/02/22 05:24:34;;;;;;;14.43;7.07;;;10.00;99.90;;;;;;5052685;28;20044;-66
2024/02/22 05:26:59;;;;;;;11.90;6.18;;;10.00;99.90;;;;;;5045530;28;20045;-66
2024/02/22 05:29:25;;;;;;;16.27;7.00;;;10.00;99.90;;;;;;5048111;28;20110;-66
2024/02/22 05:31:57;;;;;;;14.20;6.00;;;10.00;99.90;;;;;;5050021;28;20052;-66
2024/02/22 05:34:27;;;;;;;12.35;6.22;;;10.00;99.90;;;;;;5043768;28;20436;-66
2024/02/22 05:36:56;;;;;;;12.52;5.68;;;10.00;99.90;;;;;;5041053;28;20041;-66
2024/02/22 05:39:22;;;;;;;13.35;6.78;;;10.00;99.90;;;;;;5041820;28;20124;-66
2024/02/22 05:41:48;;;;;;;11.93;5.82;;;9.90;99.90;;;;;;5052506;28;20067;-66
2024/02/22 05:44:16;;;;;;;17.65;6.90;;;10.00;99.90;;;;;;5046562;28;20433;-66
2024/02/22 05:46:42;;;;;;;15.52;6.55;;;9.90;99.90;;;;;;5039931;28;20028;-66
2024/02/22 05:49:08;;;;;;;20.65;6.68;;;10.00;99.90;;;;;;5059400;28;20033;-66
2024/02/22 05:51:34;;;;;;;20.80;7.20;;;10.00;99.90;;;;;;5049989;28;20048;-66
2024/02/22 05:54:00;;;;;;;23.88;7.38;;;9.90;99.90;;;;;;5051880;28;20443;-66
2024/02/22 05:56:25;;;;;;;22.08;7.28;;;9.90;99.90;;;;;;5050546;28;20467;-66
2024/02/22 05:58:51;;;;;;;21.33;7.20;;;9.90;99.90;;;;;;5045005;28;20049;-66
2024/02/22 06:01:17;;;;;;;24.08;7.65;;;9.90;99.90;;;;;;5051837;28;20190;-66
2024/02/22 06:03:42;;;;;;;20.75;7.85;;;9.90;99.90;;;;;;5051824;28;20113;-66
2024/02/22 06:06:08;;;;;;;25.58;8.07;;;9.50;99.90;;;;;;5051153;28;20527;-66
2024/02/22 06:08:34;;;;;;;24.52;7.90;;;9.90;99.90;;;;;;5054456;28;20029;-66
2024/02/22 06:11:00;;;;;;;25.63;7.97;;;9.90;99.90;;;;;;5055695;28;20051;-66
2024/02/22 06:13:26;;;;;;;31.35;8.30;;;9.90;99.90;;;;;;5051583;28;20075;-66
2024/02/22 06:15:52;;;;;;;24.40;7.80;;;10.00;99.90;;;;;;5042422;28;20076;-66
2024/02/22 06:18:17;;;;;;;32.80;7.93;;;9.90;99.90;;;;;;5047597;28;20044;-66
2024/02/22 06:20:43;;;;;;;27.27;9.55;;;9.90;99.90;;;;;;5050379;28;20451;-66
2024/02/22 06:23:09;;;;;;;27.83;7.82;;;9.90;99.90;;;;;;5050861;28;20111;-66
2024/02/22 06:25:35;;;;;;;24.80;8.57;;;9.90;99.90;;;;;;5044899;28;20045;-66
2024/02/22 06:28:02;;;;;;;31.58;9.68;;;9.90;99.90;;;;;;5050934;28;20099;-66
2024/02/22 06:30:28;;;;;;;31.67;8.65;;;9.80;99.90;;;;;;5044328;28;20512;-66
2024/02/22 06:32:53;;;;;;;32.50;9.00;;;9.80;99.90;;;;;;5050093;28;20037;-66
2024/02/22 06:35:21;;;;;;;27.70;7.72;;;9.80;99.90;;;;;;5048562;28;20752;-66
2024/02/22 06:37:47;;;;;;;29.70;8.35;;;9.80;99.90;;;;;;5041452;28;20090;-66
2024/02/22 06:40:14;;;;;;;23.45;7.18;;;9.80;99.90;;;;;;5048516;28;20064;-66
2024/02/22 06:42:41;;;;;;;32.45;7.75;;;9.70;99.90;;;;;;5050097;28;20755;-66
2024/02/22 06:45:08;;;;;;;35.20;8.25;;;9.70;99.90;;;;;;5055678;28;20044;-66
2024/02/22 06:47:34;;;;;;;34.35;7.82;;;9.70;99.90;;;;;;5047857;28;20085;-66
2024/02/22 06:49:59;;;;;;;35.03;7.75;;;9.70;99.90;;;;;;5048926;28;20036;-66
2024/02/22 06:52:25;;;;;;;33.03;8.10;;;9.60;99.90;;;;;;5050894;28;20068;-66
2024/02/22 06:54:51;;;;;;;33.08;7.22;;;9.80;99.90;;;;;;5050761;28;20037;-66
2024/02/22 06:57:17;;;;;;;26.63;7.53;;;9.60;99.90;;;;;;5049664;28;20048;-66
2024/02/22 06:59:43;;;;;;;28.20;7.22;;;9.60;99.90;;;;;;5048415;28;20489;-66
2024/02/22 07:02:09;;;;;;;28.77;7.13;;;9.50;99.90;;;;;;5045452;28;20028;-66
2024/02/22 07:04:35;;;;;;;33.50;7.28;;;9.50;99.90;;;;;;5046117;28;20110;-66
2024/02/22 07:07:01;;;;;;;26.65;5.97;;;9.50;99.90;;;;;;5046865;28;20033;-66
2024/02/22 07:09:26;;;;;;;27.55;5.70;;;9.50;99.90;;;;;;5049874;28;20122;-66
2024/02/22 07:11:55;;;;;;;32.22;6.13;;;9.50;99.90;;;;;;5050721;28;20041;-66
2024/02/22 07:14:21;;;;;;;30.67;6.35;;;9.50;99.90;;;;;;5049409;28;20486;-66
2024/02/22 07:16:49;;;;;;;32.65;5.90;;;9.50;99.90;;;;;;5046902;28;20068;-66
2024/02/22 07:19:15;;;;;;;29.02;6.63;;;9.50;99.90;;;;;;5039129;28;20408;-66
2024/02/22 07:21:40;;;;;;;32.38;5.63;;;9.50;99.90;;;;;;5032183;28;20128;-66
2024/02/22 07:24:06;;;;;;;27.48;5.65;;;9.50;99.90;;;;;;5050430;28;20140;-66
2024/02/22 07:26:32;;;;;;;23.95;6.50;;;9.40;99.90;;;;;;5050141;28;20036;-66
2024/02/22 07:29:00;;;;;;;32.90;7.88;;;9.40;99.90;;;;;;5050202;28;20120;-66
2024/02/22 07:31:35;;;;;;;31.17;6.90;;;9.40;99.90;;;;;;5057357;28;20133;-66
2024/02/22 07:34:01;;;;;;;31.83;7.40;;;9.40;99.90;;;;;;5045443;28;20044;-66
2024/02/22 07:36:27;;;;;;;27.38;7.60;;;9.30;99.90;;;;;;5050006;28;20037;-66
2024/02/22 07:38:52;;;;;;;30.20;6.97;;;9.30;99.90;;;;;;5049434;28;20496;-66
2024/02/22 07:41:19;;;;;;;33.47;8.07;;;9.30;99.90;;;;;;5046326;28;20099;-66
2024/02/22 07:43:46;;;;;;;34.40;8.15;;;9.30;99.90;;;;;;5046673;28;20512;-67
2024/02/22 07:46:12;;;;;;;36.75;8.68;;;9.30;99.90;;;;;;5048613;28;20127;-66
2024/02/22 07:48:39;;;;;;;31.83;8.15;;;9.30;99.90;;;;;;5049309;28;20108;-66
2024/02/22 07:51:06;;;;;;;34.85;9.38;;;9.30;99.90;;;;;;5048008;28;20041;-66
2024/02/22 07:53:34;;;;;;;33.33;8.55;;;9.30;99.90;;;;;;5050339;28;20067;-66
2024/02/22 07:56:04;;;;;;;45.70;9.50;;;9.30;99.90;;;;;;5050170;28;20033;-66
2024/02/22 07:58:33;;;;;;;35.30;8.73;;;9.30;99.90;;;;;;5049580;28;20053;-66
2024/02/22 08:00:59;;;;;;;47.33;9.98;;;9.30;99.90;;;;;;5050314;28;20049;-66
2024/02/22 08:03:25;;;;;;;39.97;9.55;;;9.30;99.90;;;;;;5049400;28;20079;-66
2024/02/22 08:05:52;;;;;;;42.95;10.27;;;9.30;99.90;;;;;;5049493;28;20033;-66
2024/02/22 08:08:19;;;;;;;45.38;11.77;;;9.30;99.90;;;;;;5052643;28;20096;-66
2024/02/22 08:10:45;;;;;;;39.72;10.40;;;9.30;99.90;;;;;;5054165;28;20425;-66
2024/02/22 08:13:11;;;;;;;42.13;11.38;;;9.30;99.90;;;;;;5053866;28;20066;-66
2024/02/22 08:15:37;;;;;;;39.20;11.52;;;9.30;99.90;;;;;;5054162;28;20049;-66
2024/02/22 08:18:05;;;;;;;32.42;10.88;;;9.40;99.90;;;;;;5053361;28;20082;-66
2024/02/22 08:20:31;;;;;;;44.63;11.75;;;9.40;99.90;;;;;;5053729;28;20527;-66
2024/02/22 08:22:57;;;;;;;41.50;11.88;;;9.50;99.90;;;;;;5050702;28;20032;-66
2024/02/22 08:25:22;;;;;;;36.33;11.10;;;9.50;99.90;;;;;;5051975;28;20044;-66
2024/02/22 08:27:51;;;;;;;33.63;11.85;;;9.60;99.90;;;;;;5053089;28;20052;-66
2024/02/22 08:30:16;;;;;;;38.65;12.20;;;9.60;99.90;;;;;;5053578;28;20522;-66
2024/02/22 08:32:42;;;;;;;46.38;12.35;;;9.70;99.90;;;;;;5053842;28;20028;-66
2024/02/22 08:35:08;;;;;;;41.38;11.98;;;9.70;99.90;;;;;;5045901;28;20056;-66
2024/02/22 08:37:33;;;;;;;43.45;11.95;;;9.80;99.90;;;;;;5051458;28;20041;-66
2024/02/22 08:39:59;;;;;;;37.08;12.40;;;9.80;99.90;;;;;;5051757;28;20488;-66
2024/02/22 08:42:25;;;;;;;38.70;11.77;;;9.80;99.90;;;;;;5052687;28;20033;-66
2024/02/22 08:44:50;;;;;;;43.75;12.52;;;9.80;99.90;;;;;;5052911;28;20095;-66
2024/02/22 08:47:16;;;;;;;30.00;11.57;;;9.80;99.90;;;;;;5050551;28;20458;-66
2024/02/22 08:49:45;;;;;;;39.90;12.27;;;9.80;99.90;;;;;;5052819;28;20072;-66
2024/02/22 08:52:11;;;;;;;35.63;12.50;;;9.80;99.90;;;;;;5052745;28;20068;-66
2024/02/22 08:54:38;;;;;;;39.03;12.38;;;9.80;99.90;;;;;;5052675;28;20048;-66
2024/02/22 08:57:04;;;;;;;46.38;12.98;;;9.80;99.90;;;;;;5050754;28;20044;-66
2024/02/22 08:59:31;;;;;;;40.15;12.25;;;9.80;99.90;;;;;;5051140;28;20590;-66
2024/02/22 09:01:57;;;;;;;30.73;11.40;;;9.80;99.90;;;;;;5051239;28;20047;-66
2024/02/22 09:04:26;;;;;;;39.17;11.55;;;9.90;99.90;;;;;;5052576;28;20029;-66
2024/02/22 09:06:52;;;;;;;35.28;11.45;;;9.80;99.90;;;;;;5047842;28;20076;-66
2024/02/22 09:09:18;;;;;;;35.67;10.77;;;9.80;99.90;;;;;;5049317;28;20064;-66
2024/02/22 09:11:44;;;;;;;35.08;11.10;;;9.80;99.90;;;;;;5051328;28;20135;-66
2024/02/22 09:14:09;;;;;;;41.22;11.73;;;9.80;99.90;;;;;;5050723;28;20072;-66
2024/02/22 09:16:35;;;;;;;28.90;10.13;;;9.80;99.90;;;;;;5049317;28;20081;-66
2024/02/22 09:19:01;;;;;;;33.38;10.43;;;9.90;99.90;;;;;;5051800;28;20045;-66
2024/02/22 09:21:26;;;;;;;39.17;12.20;;;9.80;99.90;;;;;;5051926;28;20025;-66
2024/02/22 09:23:52;;;;;;;37.35;11.20;;;9.90;99.90;;;;;;5052128;28;20037;-66
2024/02/22 09:26:17;;;;;;;29.52;11.25;;;10.00;99.90;;;;;;5051995;28;20037;-66
2024/02/22 09:28:43;;;;;;;36.75;12.38;;;10.00;99.90;;;;;;5051816;28;20041;-66
2024/02/22 09:31:09;;;;;;;28.50;10.60;;;10.00;99.90;;;;;;5057496;28;20398;-66
2024/02/22 09:33:35;;;;;;;31.17;10.57;;;10.20;99.90;;;;;;5055454;28;20595;-66
2024/02/22 09:36:00;;;;;;;46.05;10.93;;;10.10;99.90;;;;;;5064041;28;20083;-66
2024/02/22 09:38:26;;;;;;;30.90;10.55;;;10.10;99.90;;;;;;5059815;28;20041;-66
2024/02/22 09:40:52;;;;;;;32.55;10.77;;;10.10;99.90;;;;;;5051795;28;20044;-66
2024/02/22 09:43:18;;;;;;;32.40;10.50;;;10.20;99.90;;;;;;5052282;28;20036;-65
2024/02/22 09:45:46;;;;;;;31.90;10.98;;;10.20;99.90;;;;;;5054239;28;20524;-65
2024/02/22 09:48:11;;;;;;;37.33;12.30;;;10.20;99.90;;;;;;5055655;28;20049;-65
2024/02/22 09:50:37;;;;;;;35.22;11.85;;;10.20;99.90;;;;;;5052969;28;20041;-65
2024/02/22 09:53:03;;;;;;;31.30;11.55;;;10.20;99.90;;;;;;5051487;28;20443;-65
2024/02/22 09:55:29;;;;;;;35.47;11.75;;;10.20;99.90;;;;;;5050622;28;20049;-65
2024/02/22 09:57:55;;;;;;;28.75;11.80;;;10.30;99.90;;;;;;5050635;28;20044;-65
2024/02/22 10:00:21;;;;;;;30.92;11.40;;;10.30;99.90;;;;;;5046857;28;20036;-64
2024/02/22 10:02:47;;;;;;;30.15;12.18;;;10.40;99.90;;;;;;5048459;28;20235;-65
2024/02/22 10:05:13;;;;;;;38.20;12.52;;;10.40;99.90;;;;;;5050178;28;20048;-65
2024/02/22 10:07:40;;;;;;;30.50;11.70;;;10.40;99.90;;;;;;5050892;28;20041;-65
2024/02/22 10:10:06;;;;;;;30.77;11.73;;;10.40;99.90;;;;;;5051596;28;20045;-65
2024/02/22 10:12:35;;;;;;;28.40;12.52;;;10.50;99.90;;;;;;5051383;28;20404;-65
2024/02/22 10:15:06;;;;;;;26.50;12.52;;;10.50;99.90;;;;;;5050008;28;20443;-65
2024/02/22 10:17:32;;;;;;;34.55;12.60;;;10.50;99.90;;;;;;5056171;28;20408;-65
2024/02/22 10:20:06;;;;;;;23.23;11.55;;;10.50;99.90;;;;;;5049378;28;20134;-64
2024/02/22 10:22:34;;;;;;;30.13;11.95;;;10.60;99.90;;;;;;5051425;28;20037;-64
2024/02/22 10:25:11;;;;;;;28.13;12.57;;;10.60;99.90;;;;;;5051436;28;20040;-65
2024/02/22 10:27:39;;;;;;;27.73;12.50;;;10.60;99.90;;;;;;5049670;28;20073;-63
2024/02/22 10:30:09;;;;;;;27.58;12.60;;;10.70;99.90;;;;;;5050408;28;20110;-65
2024/02/22 10:32:39;;;;;;;21.45;11.35;;;10.70;99.90;;;;;;5049940;28;20154;-65
2024/02/22 10:35:05;;;;;;;19.63;10.75;;;10.80;99.90;;;;;;5049026;28;20044;-65
2024/02/22 10:37:32;;;;;;;23.27;11.93;;;10.80;99.90;;;;;;5049093;28;20036;-65
2024/02/22 10:40:00;;;;;;;24.85;11.40;;;10.90;99.90;;;;;;5050648;28;20059;-65
2024/02/22 10:42:27;;;;;;;18.77;10.95;;;11.00;99.90;;;;;;5049324;28;20049;-65
2024/02/22 10:44:52;;;;;;;23.67;12.32;;;11.00;99.90;;;;;;5050326;28;20044;-64
2024/02/22 10:47:19;;;;;;;21.90;11.60;;;11.10;99.90;;;;;;5050206;28;20168;-65
2024/02/22 10:49:47;;;;;;;22.77;12.23;;;11.10;99.90;;;;;;5050415;28;20079;-65
2024/02/22 10:52:15;;;;;;;20.98;9.70;;;11.10;99.90;;;;;;5050018;28;20029;-65
2024/02/22 10:54:45;;;;;;;16.98;9.30;;;11.10;99.90;;;;;;5050550;28;20443;-65
2024/02/22 10:57:13;;;;;;;17.88;9.90;;;11.10;99.90;;;;;;5049954;28;20047;-65
2024/02/22 10:59:40;;;;;;;18.02;9.07;;;11.10;99.90;;;;;;5050642;28;20040;-64
2024/02/22 11:02:07;;;;;;;12.95;7.43;;;11.10;99.90;;;;;;5050533;28;20108;-65
2024/02/22 11:04:34;;;;;;;11.35;7.00;;;11.20;99.90;;;;;;5046565;28;20036;-64
2024/02/22 11:07:06;;;;;;;11.98;6.95;;;11.40;99.90;;;;;;5049328;28;20052;-65
2024/02/22 11:09:39;;;;;;;13.45;7.18;;;11.60;99.90;;;;;;5050452;28;20048;-65
2024/02/22 11:12:06;;;;;;;10.93;6.47;;;11.70;99.90;;;;;;5050493;28;20079;-64
2024/02/22 11:14:40;;;;;;;10.20;5.75;;;11.70;99.90;;;;;;5045936;28;20060;-65
2024/02/22 11:17:18;;;;;;;12.05;6.18;;;11.80;99.90;;;;;;5042955;28;20124;-65
2024/02/22 11:19:44;;;;;;;10.52;6.20;;;11.70;99.90;;;;;;5047722;28;20481;-65
2024/02/22 11:22:14;;;;;;;6.70;4.90;;;11.70;99.90;;;;;;5050431;28;20039;-65
2024/02/22 11:24:40;;;;;;;10.27;4.90;;;11.60;99.90;;;;;;5049971;28;20043;-65
2024/02/22 11:27:06;;;;;;;9.90;5.10;;;11.60;99.90;;;;;;5049092;28;20038;-65
2024/02/22 11:29:36;;;;;;;6.00;3.92;;;11.50;99.90;;;;;;5049312;28;20087;-64
2024/02/22 11:32:03;;;;;;;4.55;3.47;;;11.40;99.90;;;;;;5043093;28;20044;-64
2024/02/22 11:34:30;;;;;;;4.75;3.30;;;11.40;99.90;;;;;;5049910;28;20045;-64
2024/02/22 11:37:17;;;;;;;4.50;3.13;;;11.40;99.90;;;;;;5048002;28;20033;-64
2024/02/22 11:40:00;;;;;;;5.82;3.17;;;11.30;99.90;;;;;;5041825;28;20136;-65
2024/02/22 11:42:28;;;;;;;6.15;3.50;;;11.30;99.90;;;;;;5049003;28;20040;-64
2024/02/22 11:44:54;;;;;;;4.75;3.35;;;11.30;99.90;;;;;;5053936;28;20076;-65
2024/02/22 11:47:20;;;;;;;5.45;3.40;;;11.20;99.90;;;;;;5053096;28;20067;-65
2024/02/22 11:49:45;;;;;;;4.93;3.22;;;11.20;99.90;;;;;;5047199;28;20068;-65
2024/02/22 11:52:14;;;;;;;4.93;2.92;;;11.20;99.90;;;;;;5054489;28;20403;-65
2024/02/22 11:54:42;;;;;;;4.32;3.10;;;11.30;99.90;;;;;;5050370;28;20037;-65
2024/02/22 11:57:08;;;;;;;4.25;3.10;;;11.30;99.90;;;;;;5053275;28;20037;-65
2024/02/22 11:59:34;;;;;;;5.60;3.20;;;11.30;99.90;;;;;;5052347;28;20052;-65
2024/02/22 12:02:01;;;;;;;6.32;3.30;;;11.30;99.90;;;;;;5056742;28;20112;-65
2024/02/22 12:04:33;;;;;;;7.05;3.65;;;11.30;99.90;;;;;;5053578;28;20543;-65
2024/02/22 12:07:01;;;;;;;6.20;3.67;;;11.30;99.90;;;;;;5051070;28;20205;-65
2024/02/22 12:09:28;;;;;;;5.45;3.60;;;11.30;99.90;;;;;;5053432;28;20052;-65
2024/02/22 12:11:55;;;;;;;9.15;4.43;;;11.30;99.90;;;;;;5053699;28;20416;-65
2024/02/22 12:14:20;;;;;;;5.90;3.85;;;11.30;99.90;;;;;;5054633;28;20444;-65
2024/02/22 12:16:46;;;;;;;8.30;4.45;;;11.20;99.90;;;;;;5053450;28;20171;-65
2024/02/22 12:19:18;;;;;;;6.57;4.85;;;11.20;99.90;;;;;;5053881;28;20041;-65
2024/02/22 12:21:47;;;;;;;8.27;4.25;;;11.20;99.90;;;;;;5053233;28;20099;-65
2024/02/22 12:24:13;;;;;;;6.28;4.45;;;11.20;99.90;;;;;;5052826;28;20045;-65
2024/02/22 12:26:39;;;;;;;8.02;4.45;;;11.20;99.90;;;;;;5053054;28;20037;-65
2024/02/22 12:29:04;;;;;;;7.47;4.78;;;11.20;99.90;;;;;;5050445;28;20040;-65
2024/02/22 12:31:30;;;;;;;5.68;3.63;;;11.20;99.90;;;;;;5054253;28;20051;-65
2024/02/22 12:33:57;;;;;;;5.93;3.92;;;11.20;99.90;;;;;;5051887;28;20055;-65
2024/02/22 12:36:24;;;;;;;8.20;4.10;;;11.20;99.90;;;;;;5048651;28;20047;-65
2024/02/22 12:38:50;;;;;;;5.22;3.20;;;11.20;99.90;;;;;;5045513;28;20041;-65
2024/02/22 12:41:20;;;;;;;4.13;2.70;;;11.20;99.90;;;;;;5054035;28;20025;-65